Eurocargo Venezia — IBKS — position and weather

sailwx.info

Track history (hours):
 
Tides and Currents Weather Stations Pressure Air Temp Water Temp Dewpoint Dewpoint Depression Visibility Wind Speed Wind Dir Waves Ship Positions

Eurocargo Venezia

Last reported at 2016-Dec-05 16:31 UTC. Time now 2016-Dec-05 16:37 UTC.
Position N 44°24' E 008°53'.

Length 200 m; draft 7.2 m.

Type: Ship (hazmat cat D). MMSI: 247297200.

Date/timePositionNaut miles runAvg speedWind from/ knotsBaromVisibWave heightAir tempDewpointWater temp
2016-Dec-05 16:31N 44°24' E 008°53'0 0.0
2016-Dec-05 15:31N 44°24' E 008°53'0 0.0
2016-Dec-05 14:31N 44°24' E 008°53'0 0.0
2016-Dec-05 13:31N 44°24' E 008°53'0 0.0
2016-Dec-05 12:28N 44°24' E 008°53'0 0.0
2016-Dec-05 11:25N 44°24' E 008°53'0 0.0
2016-Dec-05 10:28N 44°24' E 008°53'0 0.0
2016-Dec-05 09:31N 44°24' E 008°53'0 0.0
2016-Dec-05 08:31N 44°24' E 008°53'0 0.0
2016-Dec-05 07:31N 44°24' E 008°53'1 0.6
2016-Dec-05 06:33N 44°24' E 008°54'6 5.9
2016-Dec-05 05:33N 44°20' E 008°60'1413.8
2016-Dec-05 04:33N 44°09' E 009°12'1919.0
2016-Dec-05 03:33N 43°55' E 009°29'1919.2
2016-Dec-05 02:33N 43°40' E 009°46'1918.7
2016-Dec-05 01:33N 43°26' E 010°04'1918.8
2016-Dec-05 00:33N 43°10' E 010°17'32518.7
2016-Dec-04 07:12N 39°08' E 015°06'1218.9
2016-Dec-04 06:33N 38°58' E 015°15'1918.7
2016-Dec-04 05:33N 38°43' E 015°28'1818.4
2016-Dec-04 04:33N 38°26' E 015°38'1515.0
2016-Dec-04 03:33N 38°11' E 015°37'1818.4
2016-Dec-04 02:33N 37°54' E 015°28'1918.8
2016-Dec-04 01:33N 37°37' E 015°18'77 6.4
2016-Dec-03 13:33N 36°21' E 014°57'2019.8
2016-Dec-03 12:33N 36°06' E 014°42'1615.5
2016-Dec-03 11:33N 35°53' E 014°31'0 0.0
2016-Dec-03 10:32N 35°53' E 014°31'0 0.0
2016-Dec-03 09:32N 35°53' E 014°31'0 0.0
2016-Dec-03 08:33N 35°53' E 014°31'0 0.0
2016-Dec-03 07:33N 35°53' E 014°31'0 0.0
2016-Dec-03 06:33N 35°53' E 014°31'0 0.0
2016-Dec-03 05:32N 35°53' E 014°31'0 0.0
2016-Dec-03 04:33N 35°53' E 014°31'0 0.0
2016-Dec-03 03:32N 35°53' E 014°31'6 6.2
2016-Dec-03 02:33N 35°58' E 014°35'1717.3
2016-Dec-03 01:33N 36°12' E 014°48'7117.7
2016-Dec-02 21:31N 37°20' E 015°16'1312.6
2016-Dec-02 20:31N 37°29' E 015°06'0 0.0
2016-Dec-02 19:07N 37°29' E 015°06'5 0.7
2016-Dec-02 12:07N 37°30' E 015°12'1017.9
2016-Dec-02 11:32N 37°39' E 015°18'1818.7
2016-Dec-02 10:33N 37°56' E 015°28'1817.8
2016-Dec-02 09:34N 38°13' E 015°36'1515.0
2016-Dec-02 08:33N 38°28' E 015°34'2019.6
2016-Dec-02 07:32N 38°46' E 015°24'34519.2
2016-Dec-01 13:33N 43°05' E 010°22'2019.7
2016-Dec-01 12:34N 43°23' E 010°14'1110.7
2016-Dec-01 11:33N 43°33' E 010°18'2 1.5
2016-Dec-01 10:32N 43°35' E 010°19'0 0.0
2016-Dec-01 09:32N 43°35' E 010°19'0 0.0
2016-Dec-01 08:32N 43°35' E 010°19'0 0.0
2016-Dec-01 07:32N 43°35' E 010°19'0 0.0
2016-Dec-01 06:31N 43°35' E 010°19'0 0.0
2016-Dec-01 05:31N 43°35' E 010°19'2 1.6
2016-Dec-01 04:33N 43°33' E 010°18'1010.4
2016-Dec-01 03:33N 43°30' E 010°04'1717.1
2016-Dec-01 02:33N 43°40' E 009°45'1717.0
2016-Dec-01 01:33N 43°53' E 009°30'1716.8
2016-Dec-01 00:33N 44°06' E 009°15'1716.9
2016-Nov-30 23:33N 44°18' E 008°60'7 7.3
2016-Nov-30 22:32N 44°24' E 008°53'0 0.0
2016-Nov-30 21:33N 44°24' E 008°53'0 0.0
2016-Nov-30 20:33N 44°24' E 008°53'0 0.0
2016-Nov-30 19:33N 44°24' E 008°53'0 0.0
2016-Nov-30 18:33N 44°24' E 008°53'0 0.0
2016-Nov-30 17:33N 44°24' E 008°53'0 0.0
2016-Nov-30 16:33N 44°24' E 008°53'0 0.0
2016-Nov-30 15:33N 44°24' E 008°53'0 0.0
2016-Nov-30 14:33N 44°24' E 008°53'0 0.0
2016-Nov-30 13:33N 44°24' E 008°53'0 0.0
2016-Nov-30 12:33N 44°24' E 008°53'0 0.0
2016-Nov-30 11:32N 44°24' E 008°53'3 3.4
2016-Nov-30 10:34N 44°23' E 008°57'1514.6
2016-Nov-30 09:33N 44°09' E 009°05'1918.6
2016-Nov-30 08:34N 43°54' E 009°20'1919.3
2016-Nov-30 07:34N 43°42' E 009°41'1918.7
2016-Nov-30 06:34N 43°30' E 010°01'1919.0
2016-Nov-30 05:34N 43°14' E 010°14'19018.7
2016-Nov-29 19:23N 41°01' E 013°17'1618.8
2016-Nov-29 18:33N 40°51' E 013°33'1918.7
2016-Nov-29 17:33N 40°36' E 013°48'1919.1
2016-Nov-29 16:33N 40°23' E 014°06'9919.7
2016-Nov-29 11:32N 38°60' E 015°16'1919.8
2016-Nov-29 10:33N 38°43' E 015°28'2019.7
2016-Nov-29 09:34N 38°25' E 015°39'1413.6
2016-Nov-29 08:34N 38°12' E 015°37'1818.0
2016-Nov-29 07:33N 37°54' E 015°30'2819.5
2016-Nov-29 06:08N 37°30' E 015°14'81 6.4
2016-Nov-28 17:33N 36°11' E 014°49'2120.7
2016-Nov-28 16:33N 35°55' E 014°33'3 2.6
2016-Nov-28 15:32N 35°53' E 014°31'0 0.0
2016-Nov-28 14:32N 35°53' E 014°31'0 0.0
2016-Nov-28 13:26N 35°53' E 014°31'0 0.0
2016-Nov-28 12:23N 35°53' E 014°31'0 0.0
2016-Nov-28 11:26N 35°53' E 014°31'0 0.0
2016-Nov-28 10:11N 35°53' E 014°31'0 0.0
2016-Nov-28 09:29N 35°53' E 014°31'0 0.0
2016-Nov-28 08:32N 35°53' E 014°31'0 0.0
2016-Nov-28 07:29N 35°53' E 014°31'0 0.0
2016-Nov-28 06:29N 35°53' E 014°31'2 2.7
2016-Nov-28 05:33N 35°55' E 014°32'1817.7
2016-Nov-28 04:33N 36°09' E 014°45'7918.1
2016-Nov-28 00:10N 37°26' E 015°10'6 1.7
2016-Nov-27 20:33N 37°32' E 015°13'1918.9
2016-Nov-27 19:34N 37°48' E 015°24'1919.0
2016-Nov-27 18:33N 38°06' E 015°33'1616.5
2016-Nov-27 17:33N 38°22' E 015°39'2120.0
2016-Nov-27 16:32N 38°40' E 015°28'34819.4
2016-Nov-26 22:33N 43°01' E 010°23'2020.2
2016-Nov-26 21:33N 43°19' E 010°09'2019.8
2016-Nov-26 20:33N 43°34' E 009°53'2020.0
2016-Nov-26 19:33N 43°49' E 009°34'2020.0
2016-Nov-26 18:33N 44°04' E 009°16'1919.3
2016-Nov-26 17:33N 44°19' E 008°59'7 6.1
2016-Nov-26 16:28N 44°24' E 008°53'0 0.0
2016-Nov-26 15:31N 44°24' E 008°53'0 0.0
2016-Nov-26 14:31N 44°24' E 008°53'0 0.0
2016-Nov-26 13:31N 44°24' E 008°53'0 0.0
2016-Nov-26 12:31N 44°24' E 008°53'0 0.0
2016-Nov-26 11:31N 44°24' E 008°53'0 0.0
2016-Nov-26 10:31N 44°24' E 008°53'0 0.0
2016-Nov-26 09:28N 44°24' E 008°53'0 0.0
2016-Nov-26 08:31N 44°24' E 008°53'0 0.0
2016-Nov-26 07:31N 44°24' E 008°53'0 0.0
2016-Nov-26 06:34N 44°24' E 008°53'4 4.1
2016-Nov-26 05:33N 44°22' E 008°58'1818.3
2016-Nov-26 04:34N 44°07' E 009°13'1919.4
2016-Nov-26 03:33N 43°52' E 009°31'1919.1
2016-Nov-26 02:33N 43°38' E 009°48'1918.6
2016-Nov-26 01:33N 43°24' E 010°05'1918.8
2016-Nov-26 00:33N 43°08' E 010°18'  
Track history (hours):
 
Tides and Currents Weather Stations Pressure Air Temp Water Temp Dewpoint Dewpoint Depression Visibility Wind Speed Wind Dir Waves Ship Positions

Eurocargo Venezia

Last reported at 2016-Dec-05 16:31 UTC. Time now 2016-Dec-05 16:37 UTC.
Position N 44°24' E 008°53'.

Length 200 m; draft 7.2 m.

Type: Ship (hazmat cat D). MMSI: 247297200.

Date/timePositionNaut miles runAvg speedWind from/ knotsBaromVisibWave heightAir tempDewpointWater temp
2016-Dec-05 16:31N 44°24' E 008°53'0 0.0
2016-Dec-05 15:31N 44°24' E 008°53'0 0.0
2016-Dec-05 14:31N 44°24' E 008°53'0 0.0
2016-Dec-05 13:31N 44°24' E 008°53'0 0.0
2016-Dec-05 12:28N 44°24' E 008°53'0 0.0
2016-Dec-05 11:25N 44°24' E 008°53'0 0.0
2016-Dec-05 10:28N 44°24' E 008°53'0 0.0
2016-Dec-05 09:31N 44°24' E 008°53'0 0.0
2016-Dec-05 08:31N 44°24' E 008°53'0 0.0
2016-Dec-05 07:31N 44°24' E 008°53'1 0.6
2016-Dec-05 06:33N 44°24' E 008°54'6 5.9
2016-Dec-05 05:33N 44°20' E 008°60'1413.8
2016-Dec-05 04:33N 44°09' E 009°12'1919.0
2016-Dec-05 03:33N 43°55' E 009°29'1919.2
2016-Dec-05 02:33N 43°40' E 009°46'1918.7
2016-Dec-05 01:33N 43°26' E 010°04'1918.8
2016-Dec-05 00:33N 43°10' E 010°17'32518.7
2016-Dec-04 07:12N 39°08' E 015°06'1218.9
2016-Dec-04 06:33N 38°58' E 015°15'1918.7
2016-Dec-04 05:33N 38°43' E 015°28'1818.4
2016-Dec-04 04:33N 38°26' E 015°38'1515.0
2016-Dec-04 03:33N 38°11' E 015°37'1818.4
2016-Dec-04 02:33N 37°54' E 015°28'1918.8
2016-Dec-04 01:33N 37°37' E 015°18'77 6.4
2016-Dec-03 13:33N 36°21' E 014°57'2019.8
2016-Dec-03 12:33N 36°06' E 014°42'1615.5
2016-Dec-03 11:33N 35°53' E 014°31'0 0.0
2016-Dec-03 10:32N 35°53' E 014°31'0 0.0
2016-Dec-03 09:32N 35°53' E 014°31'0 0.0
2016-Dec-03 08:33N 35°53' E 014°31'0 0.0
2016-Dec-03 07:33N 35°53' E 014°31'0 0.0
2016-Dec-03 06:33N 35°53' E 014°31'0 0.0
2016-Dec-03 05:32N 35°53' E 014°31'0 0.0
2016-Dec-03 04:33N 35°53' E 014°31'0 0.0
2016-Dec-03 03:32N 35°53' E 014°31'6 6.2
2016-Dec-03 02:33N 35°58' E 014°35'1717.3
2016-Dec-03 01:33N 36°12' E 014°48'7117.7
2016-Dec-02 21:31N 37°20' E 015°16'1312.6
2016-Dec-02 20:31N 37°29' E 015°06'0 0.0
2016-Dec-02 19:07N 37°29' E 015°06'5 0.7
2016-Dec-02 12:07N 37°30' E 015°12'1017.9
2016-Dec-02 11:32N 37°39' E 015°18'1818.7
2016-Dec-02 10:33N 37°56' E 015°28'1817.8
2016-Dec-02 09:34N 38°13' E 015°36'1515.0
2016-Dec-02 08:33N 38°28' E 015°34'2019.6
2016-Dec-02 07:32N 38°46' E 015°24'34519.2
2016-Dec-01 13:33N 43°05' E 010°22'2019.7
2016-Dec-01 12:34N 43°23' E 010°14'1110.7
2016-Dec-01 11:33N 43°33' E 010°18'2 1.5
2016-Dec-01 10:32N 43°35' E 010°19'0 0.0
2016-Dec-01 09:32N 43°35' E 010°19'0 0.0
2016-Dec-01 08:32N 43°35' E 010°19'0 0.0
2016-Dec-01 07:32N 43°35' E 010°19'0 0.0
2016-Dec-01 06:31N 43°35' E 010°19'0 0.0
2016-Dec-01 05:31N 43°35' E 010°19'2 1.6
2016-Dec-01 04:33N 43°33' E 010°18'1010.4
2016-Dec-01 03:33N 43°30' E 010°04'1717.1
2016-Dec-01 02:33N 43°40' E 009°45'1717.0
2016-Dec-01 01:33N 43°53' E 009°30'1716.8
2016-Dec-01 00:33N 44°06' E 009°15'1716.9
2016-Nov-30 23:33N 44°18' E 008°60'7 7.3
2016-Nov-30 22:32N 44°24' E 008°53'0 0.0
2016-Nov-30 21:33N 44°24' E 008°53'0 0.0
2016-Nov-30 20:33N 44°24' E 008°53'0 0.0
2016-Nov-30 19:33N 44°24' E 008°53'0 0.0
2016-Nov-30 18:33N 44°24' E 008°53'0 0.0
2016-Nov-30 17:33N 44°24' E 008°53'0 0.0
2016-Nov-30 16:33N 44°24' E 008°53'0 0.0
2016-Nov-30 15:33N 44°24' E 008°53'0 0.0
2016-Nov-30 14:33N 44°24' E 008°53'0 0.0
2016-Nov-30 13:33N 44°24' E 008°53'0 0.0
2016-Nov-30 12:33N 44°24' E 008°53'0 0.0
2016-Nov-30 11:32N 44°24' E 008°53'3 3.4
2016-Nov-30 10:34N 44°23' E 008°57'1514.6
2016-Nov-30 09:33N 44°09' E 009°05'1918.6
2016-Nov-30 08:34N 43°54' E 009°20'1919.3
2016-Nov-30 07:34N 43°42' E 009°41'1918.7
2016-Nov-30 06:34N 43°30' E 010°01'1919.0
2016-Nov-30 05:34N 43°14' E 010°14'19018.7
2016-Nov-29 19:23N 41°01' E 013°17'1618.8
2016-Nov-29 18:33N 40°51' E 013°33'1918.7
2016-Nov-29 17:33N 40°36' E 013°48'1919.1
2016-Nov-29 16:33N 40°23' E 014°06'9919.7
2016-Nov-29 11:32N 38°60' E 015°16'1919.8
2016-Nov-29 10:33N 38°43' E 015°28'2019.7
2016-Nov-29 09:34N 38°25' E 015°39'1413.6
2016-Nov-29 08:34N 38°12' E 015°37'1818.0
2016-Nov-29 07:33N 37°54' E 015°30'2819.5
2016-Nov-29 06:08N 37°30' E 015°14'81 6.4
2016-Nov-28 17:33N 36°11' E 014°49'2120.7
2016-Nov-28 16:33N 35°55' E 014°33'3 2.6
2016-Nov-28 15:32N 35°53' E 014°31'0 0.0
2016-Nov-28 14:32N 35°53' E 014°31'0 0.0
2016-Nov-28 13:26N 35°53' E 014°31'0 0.0
2016-Nov-28 12:23N 35°53' E 014°31'0 0.0
2016-Nov-28 11:26N 35°53' E 014°31'0 0.0
2016-Nov-28 10:11N 35°53' E 014°31'0 0.0
2016-Nov-28 09:29N 35°53' E 014°31'0 0.0
2016-Nov-28 08:32N 35°53' E 014°31'0 0.0
2016-Nov-28 07:29N 35°53' E 014°31'0 0.0
2016-Nov-28 06:29N 35°53' E 014°31'2 2.7
2016-Nov-28 05:33N 35°55' E 014°32'1817.7
2016-Nov-28 04:33N 36°09' E 014°45'7918.1
2016-Nov-28 00:10N 37°26' E 015°10'6 1.7
2016-Nov-27 20:33N 37°32' E 015°13'1918.9
2016-Nov-27 19:34N 37°48' E 015°24'1919.0
2016-Nov-27 18:33N 38°06' E 015°33'1616.5
2016-Nov-27 17:33N 38°22' E 015°39'2120.0
2016-Nov-27 16:32N 38°40' E 015°28'34819.4
2016-Nov-26 22:33N 43°01' E 010°23'2020.2
2016-Nov-26 21:33N 43°19' E 010°09'2019.8
2016-Nov-26 20:33N 43°34' E 009°53'2020.0
2016-Nov-26 19:33N 43°49' E 009°34'2020.0
2016-Nov-26 18:33N 44°04' E 009°16'1919.3
2016-Nov-26 17:33N 44°19' E 008°59'7 6.1
2016-Nov-26 16:28N 44°24' E 008°53'0 0.0
2016-Nov-26 15:31N 44°24' E 008°53'0 0.0
2016-Nov-26 14:31N 44°24' E 008°53'0 0.0
2016-Nov-26 13:31N 44°24' E 008°53'0 0.0
2016-Nov-26 12:31N 44°24' E 008°53'0 0.0
2016-Nov-26 11:31N 44°24' E 008°53'0 0.0
2016-Nov-26 10:31N 44°24' E 008°53'0 0.0
2016-Nov-26 09:28N 44°24' E 008°53'0 0.0
2016-Nov-26 08:31N 44°24' E 008°53'0 0.0
2016-Nov-26 07:31N 44°24' E 008°53'0 0.0
2016-Nov-26 06:34N 44°24' E 008°53'4 4.1
2016-Nov-26 05:33N 44°22' E 008°58'1818.3
2016-Nov-26 04:34N 44°07' E 009°13'1919.4
2016-Nov-26 03:33N 43°52' E 009°31'1919.1
2016-Nov-26 02:33N 43°38' E 009°48'1918.6
2016-Nov-26 01:33N 43°24' E 010°05'1918.8
2016-Nov-26 00:33N 43°08' E 010°18'  

Dump ship's entire track history